createdAt,value
2022-12-23T00:02:21.772Z,85.95
2022-12-23T00:04:48.852Z,84.63
2022-12-23T00:07:15.883Z,87.32
2022-12-23T00:09:42.851Z,83.30
2022-12-23T00:12:28.496Z,80.72
2022-12-23T00:15:07.914Z,84.82
2022-12-23T00:17:37.643Z,84.68
2022-12-23T00:20:06.333Z,79.85
2022-12-23T00:22:51.767Z,79.63
2022-12-23T00:25:19.095Z,83.40
2022-12-23T00:28:01.792Z,86.00
2022-12-23T00:30:28.965Z,83.25
2022-12-23T00:32:56.045Z,78.38
2022-12-23T00:35:23.030Z,72.43
2022-12-23T00:37:49.944Z,71.22
2022-12-23T00:40:35.795Z,72.05
2022-12-23T00:43:02.955Z,60.13
2022-12-23T00:45:29.991Z,55.20
2022-12-23T00:48:15.455Z,53.67
2022-12-23T00:50:43.544Z,45.38
2022-12-23T00:53:10.630Z,48.00
2022-12-23T00:55:37.697Z,45.92
2022-12-23T00:58:04.852Z,46.65
2022-12-23T01:00:50.691Z,44.35
2022-12-23T01:03:36.175Z,46.90
2022-12-23T01:06:03.835Z,43.85
2022-12-23T01:08:31.065Z,41.28
2022-12-23T01:11:02.323Z,39.55
2022-12-23T01:13:29.768Z,41.03
2022-12-23T01:16:07.443Z,40.45
2022-12-23T01:18:37.395Z,41.03
2022-12-23T01:21:07.515Z,40.35
2022-12-23T01:23:35.539Z,38.60
2022-12-23T01:26:04.802Z,39.50
2022-12-23T01:28:32.943Z,41.25
2022-12-23T01:31:01.288Z,39.38
2022-12-23T01:33:28.972Z,39.38
2022-12-23T01:36:08.443Z,39.53
2022-12-23T01:38:35.599Z,38.53
2022-12-23T01:41:02.742Z,37.80
2022-12-23T01:43:50.574Z,36.97
2022-12-23T01:46:18.875Z,33.25
2022-12-23T01:48:50.872Z,33.72
2022-12-23T01:51:29.507Z,31.58
2022-12-23T01:54:01.505Z,33.10
2022-12-23T01:56:46.927Z,32.35
2022-12-23T01:59:35.314Z,30.85
2022-12-23T02:02:21.510Z,30.60
2022-12-23T02:04:50.630Z,30.07
2022-12-23T02:07:36.847Z,30.40
2022-12-23T02:10:05.899Z,31.13
2022-12-23T02:13:00.505Z,31.60
2022-12-23T02:15:48.976Z,30.45
2022-12-23T02:18:28.032Z,30.25
2022-12-23T02:21:27.884Z,29.52
2022-12-23T02:24:20.178Z,29.40
2022-12-23T02:27:05.343Z,27.67
2022-12-23T02:29:56.069Z,28.50
2022-12-23T02:32:50.213Z,29.13
2022-12-23T02:35:45.358Z,28.52
2022-12-23T02:38:17.422Z,30.10
2022-12-23T02:41:05.952Z,31.02
2022-12-23T02:43:50.229Z,30.67
2022-12-23T02:46:35.631Z,31.88
2022-12-23T02:49:12.364Z,32.08
2022-12-23T02:54:15.095Z,32.13
2022-12-23T02:56:46.613Z,32.15
2022-12-23T02:59:21.879Z,32.72
2022-12-23T03:01:50.362Z,33.30
2022-12-23T03:04:17.569Z,31.55
2022-12-23T03:06:48.871Z,30.58
2022-12-23T03:09:27.131Z,31.20
2022-12-23T03:12:03.738Z,32.22
2022-12-23T03:17:46.976Z,32.53
2022-12-23T03:20:13.843Z,33.40
2022-12-23T03:22:50.064Z,34.63
2022-12-23T03:25:35.932Z,33.83
2022-12-23T03:28:22.072Z,32.47
2022-12-23T03:30:53.640Z,32.72
2022-12-23T03:33:27.179Z,32.45
2022-12-23T03:36:01.523Z,35.38
2022-12-23T03:38:30.920Z,33.50
2022-12-23T03:41:05.360Z,32.83
2022-12-23T03:43:51.090Z,32.50
2022-12-23T03:46:32.083Z,31.25
2022-12-23T03:49:03.937Z,32.15
2022-12-23T03:51:55.612Z,33.20
2022-12-23T03:54:36.684Z,33.00
2022-12-23T03:57:07.767Z,32.38
2022-12-23T03:59:43.022Z,32.20
2022-12-23T04:02:15.045Z,31.25
2022-12-23T04:05:04.381Z,30.58
2022-12-23T04:07:37.049Z,31.08
2022-12-23T04:10:05.271Z,31.85
2022-12-23T04:12:33.433Z,29.85
2022-12-23T04:15:00.706Z,30.38
2022-12-23T04:17:29.379Z,30.80
2022-12-23T04:19:56.923Z,30.85
2022-12-23T04:22:24.193Z,30.90
2022-12-23T04:24:51.183Z,30.63
2022-12-23T04:27:18.222Z,32.33
2022-12-23T04:29:45.596Z,46.55
2022-12-23T04:32:12.832Z,44.40
2022-12-23T04:34:39.843Z,40.63
2022-12-23T04:37:07.293Z,39.92
2022-12-23T04:39:34.380Z,40.90
2022-12-23T04:42:01.368Z,42.05
2022-12-23T04:44:28.338Z,45.00
2022-12-23T04:46:55.839Z,45.72
2022-12-23T04:49:22.936Z,43.22
2022-12-23T04:51:49.885Z,43.65
2022-12-23T04:54:18.563Z,46.35
2022-12-23T04:56:45.537Z,44.03
2022-12-23T04:59:12.504Z,40.15
2022-12-23T05:01:40.119Z,41.35
2022-12-23T05:04:07.454Z,40.88
2022-12-23T05:06:34.530Z,39.63
2022-12-23T05:09:01.541Z,40.47
2022-12-23T05:11:28.584Z,35.40
2022-12-23T05:13:56.013Z,32.75
2022-12-23T05:16:23.323Z,30.50
2022-12-23T05:18:50.484Z,32.60
2022-12-23T05:21:17.944Z,32.05
2022-12-23T05:23:45.140Z,31.80
2022-12-23T05:26:12.055Z,31.30
2022-12-23T05:28:39.078Z,34.00
2022-12-23T05:31:08.200Z,35.42
2022-12-23T05:33:35.861Z,35.38
2022-12-23T05:36:03.364Z,38.95
2022-12-23T05:38:30.447Z,43.65
2022-12-23T05:40:58.110Z,45.28
2022-12-23T05:43:25.636Z,45.03
2022-12-23T05:45:53.113Z,43.55
2022-12-23T05:48:20.279Z,39.58
2022-12-23T05:50:51.366Z,46.20
2022-12-23T05:53:19.834Z,50.35
2022-12-23T05:55:47.282Z,50.22
2022-12-23T05:58:14.705Z,45.35
2022-12-23T06:00:41.702Z,45.20
2022-12-23T06:03:09.070Z,48.45
2022-12-23T06:05:38.000Z,49.53
2022-12-23T06:08:11.883Z,46.88
2022-12-23T06:10:38.942Z,48.08
2022-12-23T06:13:06.004Z,49.40
2022-12-23T06:15:33.015Z,47.33
2022-12-23T06:18:00.043Z,46.83
2022-12-23T06:20:27.480Z,48.83
2022-12-23T06:22:54.907Z,53.33
2022-12-23T06:25:21.855Z,51.38
2022-12-23T06:27:48.923Z,54.72
2022-12-23T06:30:16.617Z,47.00
2022-12-23T06:32:43.869Z,49.55
2022-12-23T06:35:11.039Z,41.47
2022-12-23T06:37:38.273Z,37.95
2022-12-23T06:40:06.038Z,33.38
2022-12-23T06:42:33.462Z,31.05
2022-12-23T06:45:00.586Z,30.92
2022-12-23T06:47:27.587Z,30.83
2022-12-23T06:49:55.469Z,30.60
2022-12-23T06:52:24.255Z,26.60
2022-12-23T06:54:51.299Z,26.70
2022-12-23T06:57:18.531Z,27.50
2022-12-23T06:59:45.611Z,25.50
2022-12-23T07:02:12.934Z,24.20
2022-12-23T07:04:40.211Z,23.60
2022-12-23T07:07:07.392Z,24.48
2022-12-23T07:09:34.975Z,24.45
2022-12-23T07:12:03.873Z,25.60
2022-12-23T07:14:31.117Z,24.83
2022-12-23T07:16:58.355Z,25.77
2022-12-23T07:19:25.732Z,26.33
2022-12-23T07:21:52.901Z,25.85
2022-12-23T07:24:20.013Z,26.25
2022-12-23T07:26:47.027Z,24.35
2022-12-23T07:29:14.221Z,26.90
2022-12-23T07:31:41.526Z,28.08
2022-12-23T07:34:09.477Z,25.63
2022-12-23T07:36:36.612Z,26.70
2022-12-23T07:39:03.863Z,26.33
2022-12-23T07:41:31.341Z,25.23
2022-12-23T07:43:58.350Z,25.58
2022-12-23T07:46:25.427Z,23.80
2022-12-23T07:48:52.437Z,24.83
2022-12-23T07:51:19.614Z,26.00
2022-12-23T07:53:50.920Z,23.75
2022-12-23T07:56:19.743Z,21.23
2022-12-23T07:58:50.573Z,21.00
2022-12-23T08:01:18.352Z,21.85
2022-12-23T08:03:45.878Z,20.13
2022-12-23T08:06:14.771Z,21.35
2022-12-23T08:08:44.212Z,22.05
2022-12-23T08:11:13.301Z,22.42
2022-12-23T08:13:42.532Z,24.13
2022-12-23T08:16:10.409Z,24.45
2022-12-23T08:18:39.644Z,23.27
2022-12-23T08:21:13.579Z,26.35
2022-12-23T08:23:40.693Z,27.85
2022-12-23T08:26:13.481Z,27.08
2022-12-23T08:28:42.711Z,27.65
2022-12-23T08:31:16.981Z,27.63
2022-12-23T08:33:46.513Z,28.27
2022-12-23T08:36:22.407Z,27.75
2022-12-23T08:38:51.902Z,27.80
2022-12-23T08:41:24.926Z,26.08
2022-12-23T08:43:52.269Z,23.75
2022-12-23T08:46:20.012Z,24.92
2022-12-23T08:48:49.743Z,22.00
2022-12-23T08:51:18.885Z,22.25
2022-12-23T08:53:47.022Z,22.73
2022-12-23T08:56:20.145Z,21.70
2022-12-23T08:58:49.081Z,23.20
2022-12-23T09:01:19.561Z,22.63
2022-12-23T09:03:46.881Z,24.02
2022-12-23T09:06:29.967Z,24.00
2022-12-23T09:08:58.088Z,25.70
2022-12-23T09:11:27.215Z,25.48
2022-12-23T09:13:55.104Z,25.08
2022-12-23T09:16:23.226Z,23.85
2022-12-23T09:18:50.551Z,20.92
2022-12-23T09:21:22.565Z,19.40
2022-12-23T09:23:49.817Z,18.30
2022-12-23T09:26:34.930Z,16.42
2022-12-23T09:29:03.555Z,16.55
2022-12-23T09:31:36.736Z,16.73
2022-12-23T09:34:05.246Z,17.65
2022-12-23T09:36:32.431Z,18.45
2022-12-23T09:38:59.624Z,19.17
2022-12-23T09:41:54.893Z,17.77
2022-12-23T09:44:42.124Z,17.48
2022-12-23T09:47:17.723Z,17.35
2022-12-23T09:50:03.308Z,15.20
2022-12-23T09:52:50.113Z,15.95
2022-12-23T09:55:18.648Z,16.20
2022-12-23T09:58:01.329Z,16.48
2022-12-23T10:00:34.113Z,17.30
2022-12-23T10:03:44.442Z,16.80
2022-12-23T10:06:19.822Z,17.80
2022-12-23T10:08:50.036Z,17.35
2022-12-23T10:11:24.923Z,15.75
2022-12-23T10:13:51.723Z,17.33
2022-12-23T10:16:24.332Z,16.98
2022-12-23T10:18:57.857Z,16.20
2022-12-23T10:21:47.158Z,17.00
2022-12-23T10:24:23.231Z,15.77
2022-12-23T10:26:50.204Z,16.55
2022-12-23T10:29:20.702Z,16.05
2022-12-23T10:32:17.188Z,16.58
2022-12-23T10:35:05.371Z,16.38
2022-12-23T10:37:35.511Z,15.00
2022-12-23T10:40:20.485Z,16.17
2022-12-23T10:42:53.356Z,25.17
2022-12-23T10:45:43.405Z,17.00
2022-12-23T10:48:19.224Z,16.67
2022-12-23T10:50:55.213Z,15.10
2022-12-23T10:53:35.720Z,15.88
2022-12-23T10:56:05.303Z,15.32
2022-12-23T10:58:32.456Z,15.05
2022-12-23T11:01:09.929Z,14.77
2022-12-23T11:03:59.336Z,14.07
2022-12-23T11:06:33.151Z,14.70
2022-12-23T11:09:04.027Z,13.20
2022-12-23T11:11:55.156Z,11.55
2022-12-23T11:14:42.078Z,13.77
2022-12-23T11:17:22.240Z,15.35
2022-12-23T11:20:14.529Z,14.95
2022-12-23T11:22:50.286Z,15.38
2022-12-23T11:25:46.162Z,14.90
2022-12-23T11:28:18.112Z,13.07
2022-12-23T11:30:55.828Z,14.27
2022-12-23T11:33:32.637Z,12.77
2022-12-23T11:36:18.522Z,13.07
2022-12-23T11:39:13.433Z,12.35
2022-12-23T11:41:47.945Z,13.93
2022-12-23T11:44:14.853Z,13.20
2022-12-23T11:46:41.832Z,13.30
2022-12-23T11:49:34.192Z,11.00
2022-12-23T11:52:02.560Z,10.30
2022-12-23T11:54:31.508Z,8.85
2022-12-23T11:57:00.972Z,9.05
2022-12-23T11:59:38.596Z,10.15
2022-12-23T12:02:14.466Z,9.48
2022-12-23T12:04:43.028Z,10.38
2022-12-23T12:07:14.725Z,10.73
2022-12-23T12:09:43.857Z,9.27
2022-12-23T12:12:17.603Z,10.00
2022-12-23T12:14:49.118Z,9.93
2022-12-23T12:17:27.844Z,9.38
2022-12-23T12:20:13.775Z,8.70
2022-12-23T12:22:49.887Z,8.77
2022-12-23T12:25:37.904Z,17.60
2022-12-23T12:28:13.922Z,11.48
2022-12-23T12:31:13.689Z,8.98
2022-12-23T12:33:53.915Z,8.82
2022-12-23T12:36:26.516Z,11.27
2022-12-23T12:38:55.546Z,10.07
2022-12-23T12:41:39.844Z,9.43
2022-12-23T12:44:38.448Z,8.27
2022-12-23T12:47:36.202Z,9.70
2022-12-23T12:50:12.463Z,9.88
2022-12-23T12:52:42.708Z,8.55
2022-12-23T12:55:29.192Z,8.65
2022-12-23T12:57:56.141Z,8.38
2022-12-23T13:00:25.762Z,9.55
2022-12-23T13:03:27.695Z,10.27
2022-12-23T13:06:19.649Z,10.13
2022-12-23T13:08:46.483Z,11.25
2022-12-23T13:11:45.631Z,12.05
2022-12-23T13:14:34.964Z,10.45
2022-12-23T13:17:18.890Z,9.13
2022-12-23T13:20:03.842Z,10.93
2022-12-23T13:22:34.415Z,10.32
2022-12-23T13:25:08.779Z,10.27
2022-12-23T13:28:02.893Z,10.80
2022-12-23T13:30:52.289Z,11.15
2022-12-23T13:33:25.669Z,9.73
2022-12-23T13:36:07.645Z,9.18
2022-12-23T13:38:49.472Z,9.93
2022-12-23T13:41:21.961Z,9.52
2022-12-23T13:43:58.626Z,9.30
2022-12-23T13:46:44.306Z,9.85
2022-12-23T13:49:32.859Z,9.75
2022-12-23T13:52:07.767Z,10.35
2022-12-23T13:54:51.558Z,9.18
2022-12-23T13:58:06.350Z,9.25
2022-12-23T14:00:34.999Z,8.68
2022-12-23T14:03:02.141Z,9.25
2022-12-23T14:05:50.901Z,11.43
2022-12-23T14:08:20.568Z,11.73
2022-12-23T14:10:56.853Z,11.30
2022-12-23T14:13:27.160Z,12.05
2022-12-23T14:16:12.565Z,13.35
2022-12-23T14:19:03.666Z,13.40
2022-12-23T14:21:41.867Z,12.65
2022-12-23T14:24:27.051Z,14.23
2022-12-23T14:27:06.052Z,14.43
2022-12-23T14:29:38.264Z,13.95
2022-12-23T14:32:18.109Z,15.55
2022-12-23T14:35:04.555Z,14.32
2022-12-23T14:37:36.303Z,17.15
2022-12-23T14:40:39.340Z,16.90
2022-12-23T14:43:26.749Z,15.68
2022-12-23T14:46:00.061Z,17.98
2022-12-23T14:48:42.017Z,19.15
2022-12-23T14:51:08.774Z,20.02
2022-12-23T14:53:58.568Z,23.73
2022-12-23T14:56:43.425Z,20.60
2022-12-23T14:59:30.389Z,23.85
2022-12-23T15:02:00.756Z,23.92
2022-12-23T15:04:35.207Z,26.88
2022-12-23T15:07:08.389Z,26.55
2022-12-23T15:09:47.595Z,27.95
2022-12-23T15:12:32.801Z,26.08
2022-12-23T15:15:04.042Z,27.50
2022-12-23T15:17:33.776Z,29.38
2022-12-23T15:20:08.529Z,33.22
2022-12-23T15:22:35.579Z,34.33
2022-12-23T15:25:05.069Z,34.25
2022-12-23T15:27:36.437Z,38.83
2022-12-23T15:30:03.632Z,41.85
2022-12-23T15:32:30.642Z,40.47
2022-12-23T15:35:05.332Z,53.53
2022-12-23T15:37:39.709Z,51.30
2022-12-23T15:40:13.051Z,43.83
2022-12-23T15:42:47.881Z,52.97
2022-12-23T15:45:36.323Z,49.83
2022-12-23T15:48:05.438Z,48.22
2022-12-23T15:50:40.589Z,47.70
2022-12-23T15:53:10.758Z,45.90
2022-12-23T15:55:40.794Z,44.15
2022-12-23T15:58:15.525Z,42.35
2022-12-23T16:00:53.245Z,45.38
2022-12-23T16:03:26.717Z,40.65
2022-12-23T16:05:53.749Z,33.45
2022-12-23T16:08:29.655Z,31.33
2022-12-23T16:13:23.917Z,33.47
2022-12-23T16:15:50.826Z,32.15
2022-12-23T16:18:28.671Z,35.67
2022-12-23T16:20:59.781Z,38.40
2022-12-23T16:23:30.403Z,38.20
2022-12-23T16:26:00.407Z,42.13
2022-12-23T16:28:39.924Z,46.72
2022-12-23T16:31:08.326Z,55.40
2022-12-23T16:33:39.852Z,62.58
2022-12-23T16:36:27.819Z,74.15
2022-12-23T16:39:06.076Z,68.85
2022-12-23T16:41:35.514Z,61.15
2022-12-23T16:44:03.336Z,62.13
2022-12-23T16:46:37.783Z,58.10
2022-12-23T16:49:11.051Z,58.60
2022-12-23T16:51:40.356Z,46.15
2022-12-23T16:54:13.566Z,41.50
2022-12-23T16:56:41.117Z,36.92
2022-12-23T16:59:08.241Z,34.45
2022-12-23T17:01:38.513Z,27.83
2022-12-23T17:04:06.940Z,28.23
2022-12-23T17:06:34.765Z,30.30
2022-12-23T17:09:02.492Z,29.75
2022-12-23T17:11:37.466Z,28.77
2022-12-23T17:14:10.390Z,27.73
2022-12-23T17:16:40.672Z,28.10
2022-12-23T17:19:07.648Z,27.98
2022-12-23T17:21:39.411Z,29.38
2022-12-23T17:24:20.400Z,34.05
2022-12-23T17:26:47.244Z,39.20
2022-12-23T17:29:14.480Z,45.10
2022-12-23T17:31:43.327Z,49.15
2022-12-23T17:34:17.221Z,52.92
2022-12-23T17:36:49.538Z,59.35
2022-12-23T17:39:17.454Z,67.55
2022-12-23T17:41:44.661Z,86.70
2022-12-23T17:44:14.797Z,73.45
2022-12-23T17:46:41.872Z,78.05
2022-12-23T17:49:09.037Z,85.72
2022-12-23T17:51:36.253Z,91.75
2022-12-23T17:54:05.103Z,92.95
2022-12-23T17:56:33.230Z,98.03
2022-12-23T17:59:00.315Z,108.70
2022-12-23T18:01:30.347Z,109.00
2022-12-23T18:04:00.262Z,111.25
2022-12-23T18:06:28.986Z,119.85
2022-12-23T18:08:59.916Z,123.95
2022-12-23T18:11:35.717Z,125.90
2022-12-23T18:14:04.195Z,131.03
2022-12-23T18:16:31.667Z,129.73
2022-12-23T18:18:58.753Z,132.50
2022-12-23T18:21:29.649Z,136.90
2022-12-23T18:23:59.977Z,143.70
2022-12-23T18:26:27.234Z,150.02
2022-12-23T18:28:54.708Z,160.25
2022-12-23T18:31:25.954Z,154.82
2022-12-23T18:33:53.615Z,149.30
2022-12-23T18:36:24.875Z,159.48
2022-12-23T18:38:53.075Z,152.27
2022-12-23T18:41:21.349Z,158.15
2022-12-23T18:43:48.856Z,152.88
2022-12-23T18:46:16.336Z,159.45
2022-12-23T18:48:43.510Z,161.00
2022-12-23T18:51:18.481Z,160.77
2022-12-23T18:53:47.093Z,160.70
2022-12-23T18:56:16.107Z,157.25
2022-12-23T18:58:43.239Z,129.27
2022-12-23T19:01:15.398Z,118.68
2022-12-23T19:03:43.157Z,121.32
2022-12-23T19:06:14.280Z,136.38
2022-12-23T19:08:43.114Z,137.82
2022-12-23T19:11:15.584Z,133.02
2022-12-23T19:13:43.044Z,104.85
2022-12-23T19:16:15.951Z,83.90
2022-12-23T19:18:44.069Z,81.15
2022-12-23T19:21:11.209Z,96.35
2022-12-23T19:23:40.467Z,85.25
2022-12-23T19:26:10.265Z,87.30
2022-12-23T19:28:38.730Z,73.47
2022-12-23T19:31:14.745Z,62.42
2022-12-23T19:33:44.222Z,57.17
2022-12-23T19:36:19.613Z,59.03
2022-12-23T19:38:46.643Z,60.10
2022-12-23T19:41:18.453Z,54.38
2022-12-23T19:43:46.911Z,49.75
2022-12-23T19:46:15.477Z,46.85
2022-12-23T19:48:43.184Z,43.53
2022-12-23T19:51:13.433Z,40.53
2022-12-23T19:53:42.153Z,40.20
2022-12-23T19:56:13.880Z,37.60
2022-12-23T19:58:42.477Z,38.42
2022-12-23T20:01:14.206Z,49.08
2022-12-23T20:03:42.583Z,44.55
2022-12-23T20:06:16.021Z,38.17
2022-12-23T20:08:44.133Z,40.63
2022-12-23T20:11:17.180Z,42.90
2022-12-23T20:13:45.648Z,42.72
2022-12-23T20:16:13.577Z,40.45
2022-12-23T20:18:41.044Z,45.17
2022-12-23T20:21:08.305Z,45.20
2022-12-23T20:23:35.845Z,49.55
2022-12-23T20:26:03.171Z,51.20
2022-12-23T20:28:30.943Z,47.75
2022-12-23T20:31:10.461Z,53.75
2022-12-23T20:33:38.809Z,60.97
2022-12-23T20:36:07.266Z,70.75
2022-12-23T20:38:35.299Z,72.68
2022-12-23T20:41:03.796Z,69.93
2022-12-23T20:43:31.005Z,69.10
2022-12-23T20:45:58.701Z,67.78
2022-12-23T20:48:31.708Z,67.78
2022-12-23T20:51:09.855Z,68.38
2022-12-23T20:53:39.129Z,63.20
2022-12-23T20:56:08.841Z,68.63
2022-12-23T20:58:56.639Z,68.55
2022-12-23T21:01:28.752Z,68.95
2022-12-23T21:03:57.992Z,71.25
2022-12-23T21:06:26.079Z,66.75
2022-12-23T21:08:58.500Z,65.20
2022-12-23T21:11:29.970Z,65.25
2022-12-23T21:14:06.257Z,60.08
2022-12-23T21:16:36.615Z,70.00
2022-12-23T21:19:05.527Z,67.80
2022-12-23T21:21:32.735Z,63.17
2022-12-23T21:24:02.660Z,65.15
2022-12-23T21:26:31.704Z,60.65
2022-12-23T21:29:00.586Z,62.13
2022-12-23T21:31:30.535Z,62.60
2022-12-23T21:33:58.833Z,59.90
2022-12-23T21:36:32.386Z,62.45
2022-12-23T21:39:00.481Z,66.03
2022-12-23T21:41:30.227Z,64.78
2022-12-23T21:43:59.444Z,62.97
2022-12-23T21:46:28.445Z,60.88
2022-12-23T21:48:57.311Z,59.22
2022-12-23T21:51:40.331Z,57.45
2022-12-23T21:54:09.773Z,57.65
2022-12-23T21:56:37.500Z,55.75
2022-12-23T21:59:08.733Z,51.72
2022-12-23T22:01:35.884Z,50.25
2022-12-23T22:04:03.883Z,48.20
2022-12-23T22:06:36.296Z,48.97
2022-12-23T22:09:04.844Z,50.88
2022-12-23T22:11:34.584Z,45.63
2022-12-23T22:14:04.412Z,43.95
2022-12-23T22:16:32.766Z,49.85
2022-12-23T22:19:01.652Z,50.67
2022-12-23T22:21:31.319Z,55.85
2022-12-23T22:23:59.826Z,72.93
2022-12-23T22:26:30.527Z,67.97
2022-12-23T22:29:00.292Z,64.07
2022-12-23T22:33:34.582Z,64.57
2022-12-23T22:36:01.676Z,65.80
2022-12-23T22:38:28.876Z,67.68
2022-12-23T22:40:56.408Z,65.40
2022-12-23T22:43:23.659Z,69.95
2022-12-23T22:45:58.788Z,68.93
2022-12-23T22:48:26.792Z,65.22
2022-12-23T22:51:03.738Z,61.55
2022-12-23T22:53:31.307Z,58.42
2022-12-23T22:56:02.833Z,63.75
2022-12-23T22:58:32.434Z,73.80
2022-12-23T23:01:01.156Z,72.35
2022-12-23T23:03:29.378Z,57.05
2022-12-23T23:06:01.366Z,55.53
2022-12-23T23:08:29.810Z,50.53
2022-12-23T23:11:02.586Z,50.65
2022-12-23T23:13:32.551Z,47.22
2022-12-23T23:16:00.631Z,47.22
2022-12-23T23:18:29.016Z,47.13
2022-12-23T23:20:56.373Z,46.78
2022-12-23T23:23:23.929Z,47.53
2022-12-23T23:25:51.139Z,49.50
2022-12-23T23:28:19.889Z,47.03
2022-12-23T23:30:47.062Z,45.63
2022-12-23T23:33:14.239Z,44.28
2022-12-23T23:35:42.118Z,44.22
2022-12-23T23:38:09.826Z,41.22
2022-12-23T23:40:37.084Z,40.05
2022-12-23T23:43:04.646Z,37.40
2022-12-23T23:45:31.877Z,37.17
2022-12-23T23:47:59.590Z,35.92
2022-12-23T23:50:26.782Z,37.83
2022-12-23T23:52:53.966Z,38.35
2022-12-23T23:55:21.569Z,34.65
2022-12-23T23:57:48.790Z,36.92
